Time;durP1;ratioP1;P1;durP2;ratioP2;P2;SDS_P1;SDS_P2;PMS_P1;PMS_P2;Temp;Humidity;BMP_temperature;BMP_pressure;BME280_temperature;BME280_humidity;BME280_pressure;Samples;Min_cycle;Max_cycle;Signal;HPM_P1;HPM_P2
2023/03/12 00:02:43;;;;;;;13.90;4.80;;;3.90;99.90;;;;;;5026889;28;37713;-82
2023/03/12 00:07:48;;;;;;;11.87;5.63;;;3.90;99.90;;;;;;5040707;26;20196;-82
2023/03/12 00:13:37;;;;;;;12.83;5.67;;;4.00;99.90;;;;;;5620761;23;39567;-81
2023/03/12 00:39:27;;;;;;;11.73;5.22;;;4.00;99.90;;;;;;5763136;23;20019;-83
2023/03/12 00:41:53;;;;;;;13.57;4.87;;;4.10;99.90;;;;;;5468498;23;39672;-81
2023/03/12 00:50:56;;;;;;;8.33;4.40;;;4.20;99.90;;;;;;5959948;23;20023;-81
2023/03/12 00:58:34;;;;;;;9.87;3.77;;;4.20;99.90;;;;;;6051546;23;20022;-80
2023/03/12 01:10:28;;;;;;;9.23;4.53;;;4.30;99.90;;;;;;6127175;23;20017;31
2023/03/12 01:16:32;;;;;;;8.15;3.50;;;4.30;99.90;;;;;;6046039;23;20019;31
2023/03/12 01:58:32;;;;;;;7.57;3.30;;;4.30;99.90;;;;;;6064933;23;21195;31
2023/03/12 02:04:00;;;;;;;7.33;3.23;;;4.20;99.90;;;;;;4868098;28;20049;-76
2023/03/12 02:06:37;;;;;;;11.50;3.40;;;4.30;99.90;;;;;;4914719;29;46144;-77
2023/03/12 02:09:06;;;;;;;10.10;3.27;;;4.20;99.90;;;;;;4911938;29;36753;-77
2023/03/12 02:11:32;;;;;;;8.63;3.60;;;4.20;99.90;;;;;;4913939;29;37386;-77
2023/03/12 02:13:58;;;;;;;11.03;3.60;;;4.20;99.90;;;;;;4924991;29;38776;-77
2023/03/12 02:16:24;;;;;;;8.93;3.97;;;4.20;99.90;;;;;;4913904;29;39073;-77
2023/03/12 02:18:53;;;;;;;6.77;3.60;;;4.10;99.90;;;;;;4914805;29;36661;-77
2023/03/12 02:21:23;;;;;;;8.57;3.60;;;4.20;99.90;;;;;;4912690;29;35919;-76
2023/03/12 02:23:49;;;;;;;9.13;4.10;;;4.20;99.90;;;;;;4923282;29;37327;-77
2023/03/12 02:26:17;;;;;;;7.33;4.53;;;4.20;99.90;;;;;;4927480;29;38035;-77
2023/03/12 02:28:44;;;;;;;10.07;4.77;;;4.20;99.90;;;;;;4925243;29;36641;-77
2023/03/12 02:31:15;;;;;;;9.77;4.47;;;4.20;99.90;;;;;;4930854;29;36045;-77
2023/03/12 02:33:41;;;;;;;7.90;4.50;;;4.20;99.90;;;;;;4926544;28;39804;-77
2023/03/12 02:36:08;;;;;;;9.83;4.50;;;4.20;99.90;;;;;;4926139;29;39156;-78
2023/03/12 02:38:39;;;;;;;11.10;4.50;;;4.20;99.90;;;;;;4928618;29;36651;-78
2023/03/12 02:41:20;;;;;;;12.50;4.47;;;4.20;99.90;;;;;;4912546;29;36023;-77
2023/03/12 02:44:20;;;;;;;12.60;4.57;;;4.20;99.90;;;;;;4929167;29;39751;-77
2023/03/12 02:46:49;;;;;;;9.67;4.30;;;4.20;99.90;;;;;;4896463;29;47112;-77
2023/03/12 02:49:16;;;;;;;13.63;4.43;;;4.20;99.90;;;;;;4914188;29;37791;-78
2023/03/12 02:51:43;;;;;;;8.37;4.40;;;4.10;99.90;;;;;;4933160;29;35463;-77
2023/03/12 02:54:10;;;;;;;12.10;5.33;;;4.10;99.90;;;;;;4932687;29;39090;-78
2023/03/12 02:56:37;;;;;;;11.47;5.17;;;4.00;99.90;;;;;;4913392;29;36926;-77
2023/03/12 02:59:04;;;;;;;9.90;4.60;;;4.00;99.90;;;;;;4921134;28;37669;-77
2023/03/12 03:01:32;;;;;;;10.87;4.50;;;3.90;99.90;;;;;;4915245;29;36054;-78
2023/03/12 03:04:00;;;;;;;11.13;4.37;;;3.90;99.90;;;;;;4904671;29;38821;-78
2023/03/12 03:06:26;;;;;;;8.53;4.80;;;3.90;99.90;;;;;;4904857;29;38279;-77
2023/03/12 03:08:52;;;;;;;14.03;4.77;;;3.80;99.90;;;;;;4912580;29;37300;-77
2023/03/12 03:11:23;;;;;;;9.80;4.43;;;3.80;99.90;;;;;;4907929;29;37355;-78
2023/03/12 03:13:53;;;;;;;9.73;4.33;;;3.80;99.90;;;;;;4889537;29;36179;-78
2023/03/12 03:16:20;;;;;;;14.07;5.50;;;3.80;99.90;;;;;;4886608;29;37887;-78
2023/03/12 03:18:46;;;;;;;11.50;4.30;;;3.80;99.90;;;;;;4914592;29;38255;-78
2023/03/12 03:21:15;;;;;;;12.07;4.70;;;3.80;99.90;;;;;;4889773;29;36537;-78
2023/03/12 03:23:43;;;;;;;10.63;4.13;;;3.80;99.90;;;;;;4910105;29;39893;-78
2023/03/12 03:26:10;;;;;;;14.30;4.10;;;3.90;99.90;;;;;;4913218;29;38623;-78
2023/03/12 03:28:36;;;;;;;9.80;4.53;;;3.90;99.90;;;;;;4892621;29;37078;-76
2023/03/12 03:31:03;;;;;;;13.27;4.63;;;3.90;99.90;;;;;;4900554;29;36108;-77
2023/03/12 03:33:34;;;;;;;10.17;4.30;;;3.90;99.90;;;;;;4907352;29;40177;-77
2023/03/12 03:36:01;;;;;;;12.47;4.90;;;3.90;99.90;;;;;;4909990;29;38099;-78
2023/03/12 03:38:31;;;;;;;11.33;4.20;;;4.00;99.90;;;;;;4887861;29;46842;-78
2023/03/12 03:40:57;;;;;;;9.00;4.30;;;4.00;99.90;;;;;;4898405;29;37008;-77
2023/03/12 03:43:24;;;;;;;9.23;4.20;;;4.00;99.90;;;;;;4909003;29;38538;-77
2023/03/12 03:45:57;;;;;;;13.10;4.50;;;4.10;99.90;;;;;;4910969;29;38264;-78
2023/03/12 03:48:24;;;;;;;15.57;4.93;;;4.10;99.90;;;;;;4885356;29;36330;-77
2023/03/12 03:50:51;;;;;;;13.17;4.60;;;4.20;99.90;;;;;;4887653;29;35820;-77
2023/03/12 03:53:18;;;;;;;9.70;4.50;;;4.20;99.90;;;;;;4901153;29;38612;-75
2023/03/12 03:55:44;;;;;;;11.63;5.27;;;4.20;99.90;;;;;;4890396;29;37140;-76
2023/03/12 03:58:11;;;;;;;13.63;4.83;;;4.20;99.90;;;;;;4902319;29;36496;-75
2023/03/12 04:00:37;;;;;;;11.33;5.87;;;4.20;99.90;;;;;;4907716;29;36988;-75
2023/03/12 04:03:03;;;;;;;16.13;5.20;;;4.10;99.90;;;;;;4898835;29;39251;-77
2023/03/12 04:05:30;;;;;;;9.00;5.03;;;4.00;99.90;;;;;;4909665;29;38510;-75
2023/03/12 04:08:01;;;;;;;11.90;5.10;;;4.00;99.90;;;;;;4909280;29;38278;-75
2023/03/12 04:10:29;;;;;;;15.50;6.10;;;3.90;99.90;;;;;;4913822;29;47128;-77
2023/03/12 04:12:55;;;;;;;14.00;5.67;;;3.90;99.90;;;;;;4900597;29;37692;-75
2023/03/12 04:15:21;;;;;;;25.63;6.37;;;3.90;99.90;;;;;;4900616;29;38347;-75
2023/03/12 04:17:47;;;;;;;12.10;6.03;;;3.80;99.90;;;;;;4903678;29;36371;-76
2023/03/12 04:20:13;;;;;;;9.47;5.90;;;3.80;99.90;;;;;;4907281;29;37085;-75
2023/03/12 04:22:39;;;;;;;12.63;5.80;;;3.70;99.90;;;;;;4910154;29;39558;-75
2023/03/12 04:25:06;;;;;;;12.23;6.93;;;3.60;99.90;;;;;;4908647;29;39720;-75
2023/03/12 04:27:33;;;;;;;18.27;6.93;;;3.60;99.90;;;;;;4902605;29;37737;-75
2023/03/12 04:29:59;;;;;;;15.47;7.10;;;3.60;99.90;;;;;;4918826;29;35900;-75
2023/03/12 04:32:25;;;;;;;19.97;8.17;;;3.60;99.90;;;;;;4909354;29;39023;-74
2023/03/12 04:34:52;;;;;;;15.10;7.60;;;3.60;99.90;;;;;;4899515;29;39768;-75
2023/03/12 04:37:18;;;;;;;16.07;8.43;;;3.50;99.90;;;;;;4907714;29;37790;-74
2023/03/12 04:39:44;;;;;;;17.27;8.50;;;3.50;99.90;;;;;;4913462;29;37044;-74
2023/03/12 04:42:10;;;;;;;13.13;8.50;;;3.50;99.90;;;;;;4912583;29;38530;-76
2023/03/12 04:44:36;;;;;;;19.03;8.20;;;3.50;99.90;;;;;;4919388;29;36918;-74
2023/03/12 04:47:03;;;;;;;21.10;8.17;;;3.50;99.90;;;;;;4909204;29;38649;-74
2023/03/12 04:49:29;;;;;;;20.33;8.73;;;3.50;99.90;;;;;;4924874;29;37447;-73
2023/03/12 04:51:55;;;;;;;26.53;8.93;;;3.50;99.90;;;;;;4907784;29;37318;-74
2023/03/12 04:54:22;;;;;;;17.83;9.27;;;3.50;99.90;;;;;;4916823;29;37515;-74
2023/03/12 04:56:49;;;;;;;18.63;9.53;;;3.60;99.90;;;;;;4909082;29;34558;-74
2023/03/12 04:59:15;;;;;;;16.63;9.13;;;3.60;99.90;;;;;;4920270;29;36119;-73
2023/03/12 05:01:41;;;;;;;18.97;9.40;;;3.50;99.90;;;;;;4908399;29;39148;-74
2023/03/12 05:04:08;;;;;;;24.87;9.53;;;3.60;99.90;;;;;;4924522;29;38537;-74
2023/03/12 05:06:34;;;;;;;18.23;9.63;;;3.60;99.90;;;;;;4907172;29;38060;-73
2023/03/12 05:09:01;;;;;;;17.33;8.67;;;3.60;99.90;;;;;;4910216;29;36273;-75
2023/03/12 05:11:27;;;;;;;17.43;9.47;;;3.60;99.90;;;;;;4911271;29;47239;-75
2023/03/12 05:13:53;;;;;;;16.50;9.43;;;3.60;99.90;;;;;;4925366;29;39140;-74
2023/03/12 05:16:19;;;;;;;19.10;10.57;;;3.60;99.90;;;;;;4903618;29;37828;-75
2023/03/12 05:18:46;;;;;;;19.53;10.13;;;3.60;99.90;;;;;;4913207;29;35998;-74
2023/03/12 05:21:14;;;;;;;23.63;10.53;;;3.60;99.90;;;;;;4912822;29;37833;-74
2023/03/12 05:23:41;;;;;;;24.27;9.97;;;3.60;99.90;;;;;;4929475;29;37977;-74
2023/03/12 05:26:30;;;;;;;19.87;10.00;;;3.60;99.90;;;;;;4926239;28;38792;-74
2023/03/12 05:28:57;;;;;;;22.23;9.73;;;3.60;99.90;;;;;;4912311;29;37474;-75
2023/03/12 05:31:23;;;;;;;21.07;9.97;;;3.60;99.90;;;;;;4904490;29;37956;-74
2023/03/12 05:33:49;;;;;;;21.17;11.00;;;3.60;99.90;;;;;;4917752;28;38660;-74
2023/03/12 05:36:16;;;;;;;19.97;12.10;;;3.60;99.90;;;;;;4925945;28;37004;-75
2023/03/12 05:38:42;;;;;;;19.17;11.27;;;3.60;99.90;;;;;;4905672;29;36296;-76
2023/03/12 05:41:17;;;;;;;18.20;11.10;;;3.60;99.90;;;;;;4909207;29;38886;-75
2023/03/12 05:43:43;;;;;;;16.47;12.50;;;3.60;99.90;;;;;;4912075;29;37075;-75
2023/03/12 05:46:09;;;;;;;23.50;12.33;;;3.60;99.90;;;;;;4921152;28;36590;-75
2023/03/12 05:48:35;;;;;;;24.27;14.70;;;3.60;99.90;;;;;;4927997;29;38108;-75
2023/03/12 05:51:01;;;;;;;32.87;14.07;;;3.60;99.90;;;;;;4924141;29;39185;-75
2023/03/12 05:53:27;;;;;;;27.60;14.97;;;3.60;99.90;;;;;;4910668;29;46962;-75
2023/03/12 05:55:53;;;;;;;21.53;14.93;;;3.60;99.90;;;;;;4911451;29;36309;-75
2023/03/12 05:58:20;;;;;;;25.37;14.23;;;3.60;99.90;;;;;;4907053;29;39164;-75
2023/03/12 06:00:46;;;;;;;25.73;14.03;;;3.60;99.90;;;;;;4927763;29;38145;-75
2023/03/12 06:03:13;;;;;;;29.73;16.33;;;3.60;99.90;;;;;;4918204;29;38438;-76
2023/03/12 06:05:39;;;;;;;27.47;15.67;;;3.60;99.90;;;;;;4897817;29;37094;-76
2023/03/12 06:08:06;;;;;;;26.30;18.73;;;3.70;99.90;;;;;;4918882;29;37501;-75
2023/03/12 06:10:33;;;;;;;22.50;15.53;;;3.70;99.90;;;;;;4905290;29;37965;-77
2023/03/12 06:12:59;;;;;;;24.30;15.73;;;3.70;99.90;;;;;;4902216;29;38086;-75
2023/03/12 06:15:25;;;;;;;29.63;17.03;;;3.70;99.90;;;;;;4914540;29;37424;-76
2023/03/12 06:17:51;;;;;;;25.10;17.47;;;3.70;99.90;;;;;;4913300;29;37253;-76
2023/03/12 06:20:17;;;;;;;25.87;17.93;;;3.70;99.90;;;;;;4894854;29;39039;-76
2023/03/12 06:22:43;;;;;;;29.40;19.03;;;3.70;99.90;;;;;;4911305;29;38487;-76
2023/03/12 06:25:09;;;;;;;35.00;21.27;;;3.80;99.90;;;;;;4908237;29;37469;-76
2023/03/12 06:27:35;;;;;;;32.20;19.70;;;3.80;99.90;;;;;;4889256;29;36554;-75
2023/03/12 06:30:03;;;;;;;37.07;22.57;;;3.80;99.90;;;;;;4900757;29;37885;-75
2023/03/12 06:32:30;;;;;;;29.73;20.63;;;3.90;99.90;;;;;;4898810;29;37238;-75
2023/03/12 06:34:57;;;;;;;30.10;23.00;;;3.90;99.90;;;;;;4895915;29;41654;-76
2023/03/12 06:37:24;;;;;;;29.57;20.27;;;3.90;99.90;;;;;;4893403;29;36916;-76
2023/03/12 06:39:50;;;;;;;30.27;20.57;;;3.90;99.90;;;;;;4893881;29;39906;-75
2023/03/12 06:42:17;;;;;;;34.73;22.67;;;3.90;99.90;;;;;;4898051;29;37203;-75
2023/03/12 06:44:43;;;;;;;38.97;23.60;;;3.90;99.90;;;;;;4899650;29;38382;-75
2023/03/12 06:47:09;;;;;;;31.67;21.90;;;4.00;99.90;;;;;;4909980;29;37606;-75
2023/03/12 06:49:36;;;;;;;36.80;23.40;;;4.00;99.90;;;;;;4899899;29;37649;-75
2023/03/12 06:52:02;;;;;;;31.70;22.00;;;4.00;99.90;;;;;;4909092;29;38311;-74
2023/03/12 06:54:28;;;;;;;35.97;22.70;;;4.00;99.90;;;;;;4911778;29;37784;-76
2023/03/12 06:56:55;;;;;;;41.00;25.63;;;4.10;99.90;;;;;;4894495;29;37166;-77
2023/03/12 06:59:21;;;;;;;31.33;22.07;;;4.10;99.90;;;;;;4911530;29;39454;-76
2023/03/12 07:01:48;;;;;;;37.67;24.23;;;4.10;99.90;;;;;;4895730;29;37500;-76
2023/03/12 07:04:14;;;;;;;43.90;24.53;;;4.10;99.90;;;;;;4922507;29;38092;-76
2023/03/12 07:06:40;;;;;;;38.40;26.33;;;4.20;99.90;;;;;;4900671;29;37778;-76
2023/03/12 07:09:06;;;;;;;40.80;27.73;;;4.30;99.90;;;;;;4912081;29;40480;-76
2023/03/12 07:11:33;;;;;;;43.83;26.73;;;4.30;99.90;;;;;;4910410;29;37640;-77
2023/03/12 07:13:59;;;;;;;37.97;25.67;;;4.40;99.90;;;;;;4913555;29;39370;-77
2023/03/12 07:16:25;;;;;;;48.07;29.73;;;4.40;99.90;;;;;;4905461;29;36352;-76
2023/03/12 07:18:51;;;;;;;43.97;28.07;;;4.50;99.90;;;;;;4902078;29;39330;-75
2023/03/12 07:21:22;;;;;;;50.93;29.00;;;4.50;99.90;;;;;;4917229;29;39255;-75
2023/03/12 07:23:50;;;;;;;43.73;27.13;;;4.60;99.90;;;;;;4917564;29;38048;-75
2023/03/12 07:26:16;;;;;;;58.33;31.03;;;4.70;99.90;;;;;;4918369;29;38569;-76
2023/03/12 07:28:43;;;;;;;50.93;27.97;;;4.70;99.90;;;;;;4896887;29;37523;-76
2023/03/12 07:31:09;;;;;;;47.17;27.77;;;4.80;99.90;;;;;;4917983;29;38208;-76
2023/03/12 07:33:35;;;;;;;44.83;27.73;;;4.90;99.90;;;;;;4901075;29;36973;-76
2023/03/12 07:36:02;;;;;;;46.73;29.30;;;4.90;99.90;;;;;;4900887;29;36231;-77
2023/03/12 07:38:28;;;;;;;55.63;31.30;;;5.00;99.90;;;;;;4923867;29;48265;-76
2023/03/12 07:40:56;;;;;;;58.50;34.20;;;5.10;99.90;;;;;;4913483;29;38518;-77
2023/03/12 07:43:23;;;;;;;53.00;32.60;;;5.20;99.90;;;;;;4919175;29;37653;-76
2023/03/12 07:45:50;;;;;;;60.27;35.03;;;5.30;99.90;;;;;;4902069;29;36034;-76
2023/03/12 07:48:18;;;;;;;72.97;38.67;;;5.40;99.90;;;;;;4898943;29;37937;-76
2023/03/12 07:50:44;;;;;;;66.77;38.33;;;5.50;99.90;;;;;;4900837;29;37349;-76
2023/03/12 07:53:11;;;;;;;64.67;39.33;;;5.60;99.90;;;;;;4899092;29;37740;-77
2023/03/12 07:55:37;;;;;;;65.00;37.60;;;5.60;99.90;;;;;;4899676;29;36447;-77
2023/03/12 07:58:04;;;;;;;77.50;41.83;;;5.70;99.90;;;;;;4904927;29;37560;-76
2023/03/12 08:00:33;;;;;;;76.90;42.40;;;5.70;99.90;;;;;;4896719;29;37746;-77
2023/03/12 08:02:59;;;;;;;71.93;42.47;;;5.80;99.90;;;;;;4893335;29;37371;-76
2023/03/12 08:05:25;;;;;;;76.13;41.43;;;5.90;99.90;;;;;;4914557;29;37184;-74
2023/03/12 08:07:52;;;;;;;67.43;41.17;;;6.00;99.90;;;;;;4897025;29;37634;-76
2023/03/12 08:10:19;;;;;;;78.07;43.00;;;6.10;99.90;;;;;;4913622;29;38305;-75
2023/03/12 08:12:45;;;;;;;83.60;45.83;;;6.10;99.90;;;;;;4912747;29;38915;-75
2023/03/12 08:15:11;;;;;;;75.10;44.97;;;6.20;99.90;;;;;;4895937;29;37722;-75
2023/03/12 08:17:38;;;;;;;83.57;42.93;;;6.30;99.90;;;;;;4913154;29;38351;-76
2023/03/12 08:20:08;;;;;;;94.47;47.37;;;6.30;99.90;;;;;;4911233;29;39314;-75
2023/03/12 08:22:35;;;;;;;78.27;40.97;;;6.40;99.90;;;;;;4895388;29;37935;-75
2023/03/12 08:25:03;;;;;;;65.03;38.63;;;6.50;99.90;;;;;;4893578;29;36625;-75
2023/03/12 08:27:29;;;;;;;69.80;40.20;;;6.50;99.90;;;;;;4911901;29;37182;-75
2023/03/12 08:29:55;;;;;;;64.63;37.37;;;6.60;99.90;;;;;;4889379;29;36750;-75
2023/03/12 08:32:21;;;;;;;68.47;37.63;;;6.70;99.90;;;;;;4906099;29;37922;-74
2023/03/12 08:34:47;;;;;;;68.30;36.57;;;6.90;99.90;;;;;;4914880;29;38412;-75
2023/03/12 08:37:13;;;;;;;55.50;32.43;;;7.00;99.90;;;;;;4913288;29;38846;-75
2023/03/12 08:39:39;;;;;;;52.63;31.20;;;7.10;99.90;;;;;;4892039;29;37323;-73
2023/03/12 08:42:06;;;;;;;58.70;33.13;;;7.10;99.90;;;;;;4896858;29;37060;-74
2023/03/12 08:44:33;;;;;;;45.20;27.67;;;7.20;99.90;;;;;;4894278;29;36445;-75
2023/03/12 08:46:59;;;;;;;45.97;25.97;;;7.30;99.90;;;;;;4911525;29;39174;-74
2023/03/12 08:49:25;;;;;;;47.73;26.40;;;7.40;99.90;;;;;;4894027;29;37053;-74
2023/03/12 08:51:51;;;;;;;40.23;23.97;;;7.40;99.90;;;;;;4909813;29;37762;-73
2023/03/12 08:54:19;;;;;;;45.33;25.27;;;7.50;99.90;;;;;;4906967;29;37489;-74
2023/03/12 08:56:50;;;;;;;39.60;21.37;;;7.60;99.90;;;;;;4889026;29;38443;-75
2023/03/12 08:59:16;;;;;;;32.70;19.63;;;7.70;99.90;;;;;;4906180;29;38630;-73
2023/03/12 09:01:42;;;;;;;41.13;20.57;;;7.80;99.90;;;;;;4891353;29;36710;-73
2023/03/12 09:04:09;;;;;;;44.77;18.67;;;7.90;99.90;;;;;;4888581;29;37511;-73
2023/03/12 09:06:35;;;;;;;33.67;15.73;;;7.90;99.90;;;;;;4907774;29;39196;-75
2023/03/12 09:09:07;;;;;;;36.47;14.03;;;8.00;99.90;;;;;;4909277;29;39580;-75
2023/03/12 09:11:34;;;;;;;;;;;8.00;99.90;;;;;;4888515;29;47259;-74
2023/03/12 09:14:01;;;;;;;31.60;11.30;;;8.20;99.90;;;;;;4888817;29;36794;-74
2023/03/12 09:16:28;;;;;;;34.47;10.67;;;8.20;99.90;;;;;;4905408;29;48192;-75
2023/03/12 09:18:54;;;;;;;34.63;10.13;;;8.30;99.90;;;;;;4891211;29;37341;-77
2023/03/12 09:21:21;;;;;;;31.73;9.90;;;8.40;99.90;;;;;;4905011;29;38221;-76
2023/03/12 09:23:47;;;;;;;36.40;10.47;;;8.40;99.90;;;;;;4890334;29;36668;-75
2023/03/12 09:26:13;;;;;;;28.40;9.40;;;8.50;99.90;;;;;;4889707;29;37627;-75
2023/03/12 09:28:39;;;;;;;32.93;8.63;;;8.60;99.90;;;;;;4893515;29;38529;-76
2023/03/12 09:31:05;;;;;;;30.77;8.67;;;8.70;99.90;;;;;;4891263;29;38440;-75
2023/03/12 09:33:34;;;;;;;37.37;8.77;;;8.80;99.90;;;;;;4891579;29;35866;-76
2023/03/12 09:36:01;;;;;;;33.30;8.40;;;8.80;99.90;;;;;;4892445;29;38949;-75
2023/03/12 09:38:27;;;;;;;28.53;9.13;;;8.80;99.90;;;;;;4893630;29;47259;-75
2023/03/12 09:40:55;;;;;;;27.77;8.37;;;8.90;99.90;;;;;;4895441;29;36663;-75
2023/03/12 09:43:33;;;;;;;32.63;8.13;;;9.20;99.90;;;;;;4890001;29;36163;-75
2023/03/12 09:46:00;;;;;;;32.67;7.60;;;9.30;99.90;;;;;;4882729;29;37992;-76
2023/03/12 09:48:35;;;;;;;31.50;6.67;;;9.40;99.90;;;;;;4887080;29;46518;-76
2023/03/12 09:51:22;;;;;;;34.40;7.13;;;9.50;99.90;;;;;;4903057;29;37765;-77
2023/03/12 09:53:52;;;;;;;31.17;7.03;;;9.60;99.90;;;;;;4904764;29;47881;-76
2023/03/12 09:56:21;;;;;;;33.87;7.07;;;9.60;99.90;;;;;;4906380;29;38380;-77
2023/03/12 09:58:48;;;;;;;37.73;8.10;;;9.60;99.90;;;;;;4889476;29;38598;-77
2023/03/12 10:01:49;;;;;;;31.98;8.73;;;9.80;99.90;;;;;;4888316;29;36593;-76
2023/03/12 10:04:21;;;;;;;38.33;7.53;;;9.90;99.90;;;;;;4898221;29;36936;-76
2023/03/12 10:07:10;;;;;;;43.08;7.63;;;9.80;99.90;;;;;;4887038;29;37570;-76
2023/03/12 10:10:33;;;;;;;35.17;7.53;;;9.80;99.90;;;;;;4880356;29;47133;-76
2023/03/12 10:13:02;;;;;;;;;;;9.80;99.90;;;;;;4846711;29;47098;-76
2023/03/12 10:15:40;;;;;;;38.60;7.37;;;9.70;99.90;;;;;;4847697;29;48287;-76
2023/03/12 10:18:45;;;;;;;35.27;6.63;;;9.70;99.90;;;;;;4878617;29;38415;-77
2023/03/12 10:21:19;;;;;;;31.10;6.85;;;9.70;99.90;;;;;;4885470;29;39098;-78
2023/03/12 10:24:06;;;;;;;37.50;6.03;;;9.90;99.90;;;;;;4904722;29;38066;-77
2023/03/12 10:26:48;;;;;;;40.93;7.70;;;10.00;99.90;;;;;;4893649;29;47111;-78
2023/03/12 10:29:21;;;;;;;31.45;6.10;;;10.00;99.90;;;;;;4885827;29;38631;-77
2023/03/12 10:31:47;;;;;;;36.38;7.45;;;10.10;99.90;;;;;;4897582;29;38888;-77
2023/03/12 10:34:22;;;;;;;38.23;8.23;;;10.10;99.90;;;;;;4885714;29;38283;-77
2023/03/12 10:36:48;;;;;;;32.97;6.33;;;10.20;99.90;;;;;;4891472;29;37368;-77
2023/03/12 10:39:18;;;;;;;39.17;6.22;;;10.30;99.90;;;;;;4889842;29;38533;-78
2023/03/12 10:41:48;;;;;;;35.43;6.37;;;10.30;99.90;;;;;;4889607;29;37538;-77
2023/03/12 10:44:22;;;;;;;41.08;6.65;;;10.30;99.90;;;;;;4887629;29;37644;-77
2023/03/12 10:47:17;;;;;;;53.15;8.73;;;10.50;99.90;;;;;;4886799;29;37396;-77
2023/03/12 10:49:49;;;;;;;42.05;7.97;;;10.60;99.90;;;;;;4899782;29;48817;-78
2023/03/12 10:52:20;;;;;;;39.25;7.53;;;10.50;99.90;;;;;;4883310;29;36790;-74
2023/03/12 10:54:52;;;;;;;43.70;8.63;;;10.40;99.90;;;;;;4900649;29;38988;-77
2023/03/12 10:57:19;;;;;;;42.47;6.95;;;10.40;99.90;;;;;;4901913;29;37446;-77
2023/03/12 10:59:47;;;;;;;45.25;7.43;;;10.50;99.90;;;;;;4903699;29;36677;-77
2023/03/12 11:02:42;;;;;;;39.65;6.85;;;10.50;99.90;;;;;;4898813;28;38687;-76
2023/03/12 11:05:48;;;;;;;46.65;8.43;;;10.50;99.90;;;;;;4899072;29;37061;-76
2023/03/12 11:08:22;;;;;;;40.13;8.15;;;10.60;99.90;;;;;;4901463;29;38607;-77
2023/03/12 11:10:49;;;;;;;41.42;8.27;;;10.60;99.90;;;;;;4917132;29;38882;-75
2023/03/12 11:13:38;;;;;;;47.95;7.35;;;10.60;99.90;;;;;;4897752;28;37329;-75
2023/03/12 11:16:16;;;;;;;43.40;7.63;;;10.60;99.90;;;;;;4898075;28;38110;-76
2023/03/12 11:19:02;;;;;;;44.90;7.13;;;10.70;99.90;;;;;;4905146;29;35827;-76
2023/03/12 11:21:30;;;;;;;42.25;7.28;;;10.90;99.90;;;;;;4906467;29;47057;-76
2023/03/12 11:23:56;;;;;;;41.33;6.72;;;11.10;99.90;;;;;;4902401;28;38371;-76
2023/03/12 11:26:30;;;;;;;34.85;6.97;;;11.30;99.90;;;;;;4921862;28;37327;-75
2023/03/12 11:29:24;;;;;;;50.10;8.35;;;11.40;99.90;;;;;;4906504;28;35898;-76
2023/03/12 11:31:56;;;;;;;40.05;7.07;;;11.10;99.90;;;;;;4916802;28;47430;-76
2023/03/12 11:34:29;;;;;;;43.83;8.70;;;11.30;99.90;;;;;;4921926;28;37983;-76
2023/03/12 11:37:15;;;;;;;42.78;6.82;;;11.60;99.90;;;;;;4927569;28;37921;-76
2023/03/12 11:39:55;;;;;;;40.58;8.38;;;11.90;99.90;;;;;;4919990;29;48733;-75
2023/03/12 11:42:50;;;;;;;45.40;8.73;;;11.90;99.90;;;;;;4899989;29;38695;-76
2023/03/12 11:45:26;;;;;;;37.67;7.00;;;12.20;99.90;;;;;;4923014;28;39300;-76
2023/03/12 11:48:11;;;;;;;42.03;8.48;;;12.30;99.90;;;;;;4906861;29;36885;-77
2023/03/12 11:50:49;;;;;;;37.63;7.88;;;12.20;99.90;;;;;;4922958;28;48794;-76
2023/03/12 11:53:52;;;;;;;40.83;7.25;;;12.20;99.90;;;;;;4907370;28;37581;-73
2023/03/12 11:56:39;;;;;;;36.20;6.47;;;12.30;99.90;;;;;;4911707;28;37157;-76
2023/03/12 11:59:26;;;;;;;42.10;7.80;;;12.50;99.90;;;;;;4921704;28;37819;-77
2023/03/12 12:02:20;;;;;;;38.75;7.05;;;12.30;99.90;;;;;;4908469;28;37379;-77
2023/03/12 12:05:23;;;;;;;35.95;7.13;;;12.30;99.90;;;;;;4907386;29;49230;-77
2023/03/12 12:08:27;;;;;;;43.75;8.23;;;12.40;99.90;;;;;;4905340;29;48726;-76
2023/03/12 12:11:19;;;;;;;49.50;8.90;;;12.40;99.90;;;;;;4909444;29;48858;-77
2023/03/12 12:14:00;;;;;;;59.65;10.27;;;12.40;99.90;;;;;;4891011;29;47189;-77
2023/03/12 12:16:29;;;;;;;42.45;8.43;;;12.30;99.90;;;;;;4888317;29;37827;-76
2023/03/12 12:19:19;;;;;;;47.42;9.25;;;12.20;99.90;;;;;;4905590;29;37976;-78
2023/03/12 12:22:03;;;;;;;45.63;8.63;;;12.10;99.90;;;;;;4889150;29;47160;-77
2023/03/12 12:24:57;;;;;;;44.90;7.88;;;12.00;99.90;;;;;;4889462;29;47081;-77
2023/03/12 12:27:28;;;;;;;57.63;9.07;;;11.90;99.90;;;;;;4885031;29;37636;-77
2023/03/12 12:30:18;;;;;;;46.80;8.02;;;11.90;99.90;;;;;;4891025;29;38825;-76
2023/03/12 12:33:21;;;;;;;44.75;7.43;;;11.90;99.90;;;;;;4894122;29;47362;-78
2023/03/12 12:35:47;;;;;;;;;;;12.10;99.90;;;;;;4910928;29;48788;-76
2023/03/12 12:38:29;;;;;;;47.33;9.05;;;12.30;99.90;;;;;;4903757;29;39820;-77
2023/03/12 12:41:12;;;;;;;46.67;7.65;;;12.50;99.90;;;;;;4908452;29;38553;-79
2023/03/12 12:43:52;;;;;;;34.00;8.02;;;12.60;99.90;;;;;;4893606;29;47371;-77
2023/03/12 12:46:41;;;;;;;38.03;7.22;;;12.50;99.90;;;;;;4895206;29;36241;-78
2023/03/12 12:49:42;;;;;;;36.15;7.03;;;12.50;99.90;;;;;;4916510;29;38890;-78
2023/03/12 12:52:11;;;;;;;32.35;6.78;;;12.40;99.90;;;;;;4889729;29;37013;-79
2023/03/12 12:55:10;;;;;;;40.50;7.47;;;12.20;99.90;;;;;;4894236;29;37837;-79
2023/03/12 12:57:54;;;;;;;40.08;6.60;;;12.10;99.90;;;;;;4865325;29;47011;-79
2023/03/12 13:00:42;;;;;;;37.28;7.25;;;12.20;99.90;;;;;;4908641;29;37427;-77
2023/03/12 13:03:16;;;;;;;39.50;8.20;;;12.30;99.90;;;;;;4917720;29;38402;-77
2023/03/12 13:05:58;;;;;;;37.80;7.75;;;12.40;99.90;;;;;;4910539;29;38207;-78
2023/03/12 13:08:53;;;;;;;51.08;9.43;;;12.20;99.90;;;;;;4897824;29;37142;-78
2023/03/12 13:11:28;;;;;;;51.17;9.80;;;12.10;99.90;;;;;;4918480;29;39726;-77
2023/03/12 13:14:04;;;;;;;49.25;8.57;;;12.00;99.90;;;;;;4897432;29;37378;-77
2023/03/12 13:16:34;;;;;;;55.13;9.05;;;11.90;99.90;;;;;;4893525;29;47271;-78
2023/03/12 13:19:12;;;;;;;47.85;9.02;;;11.90;99.90;;;;;;4891429;29;36372;-77
2023/03/12 13:22:15;;;;;;;47.85;8.25;;;11.80;99.90;;;;;;4909597;29;47288;-77
2023/03/12 13:24:53;;;;;;;55.63;9.85;;;11.80;99.90;;;;;;4902287;29;48972;-78
2023/03/12 13:27:27;;;;;;;57.95;10.07;;;11.80;99.90;;;;;;4895495;29;36604;-78
2023/03/12 13:29:56;;;;;;;44.40;9.52;;;11.80;99.90;;;;;;4906857;29;36187;-79
2023/03/12 13:32:34;;;;;;;46.20;8.40;;;12.10;99.90;;;;;;4893645;29;37957;-78
2023/03/12 13:35:21;;;;;;;41.53;9.60;;;12.20;99.90;;;;;;4896853;29;38115;-80
2023/03/12 13:37:59;;;;;;;43.30;7.38;;;12.40;99.90;;;;;;4892873;29;47125;-78
2023/03/12 13:40:28;;;;;;;44.80;7.55;;;12.50;99.90;;;;;;4893515;29;36405;-78
2023/03/12 13:43:13;;;;;;;40.05;8.18;;;12.40;99.90;;;;;;4907670;29;39364;-80
2023/03/12 13:46:04;;;;;;;42.80;7.95;;;12.40;99.90;;;;;;4913421;29;48748;-80
2023/03/12 13:48:34;;;;;;;41.95;7.50;;;12.40;99.90;;;;;;4915753;29;48690;-78
2023/03/12 13:51:22;;;;;;;44.28;7.50;;;12.60;99.90;;;;;;4892599;29;36754;-78
2023/03/12 13:54:00;;;;;;;43.72;7.43;;;12.80;99.90;;;;;;4913329;29;49070;-77
2023/03/12 13:56:31;;;;;;;32.97;6.65;;;12.90;99.90;;;;;;4911779;29;39121;-80
2023/03/12 13:59:02;;;;;;;40.30;7.77;;;12.90;99.90;;;;;;4889521;29;36633;-78
2023/03/12 14:01:38;;;;;;;36.05;7.00;;;13.20;99.90;;;;;;4893425;29;47136;-78
2023/03/12 14:04:12;;;;;;;36.65;7.85;;;13.50;99.90;;;;;;4906882;29;38301;-78
2023/03/12 14:07:06;;;;;;;42.78;8.32;;;13.40;99.90;;;;;;4921616;28;38608;-78
2023/03/12 14:10:03;;;;;;;39.75;8.52;;;13.40;99.90;;;;;;4917597;29;47138;-79
2023/03/12 14:12:36;;;;;;;44.35;7.60;;;13.00;99.90;;;;;;4923512;29;36327;-79
2023/03/12 14:15:26;;;;;;;48.63;8.38;;;12.90;99.90;;;;;;4907091;29;38985;-79
2023/03/12 14:18:02;;;;;;;49.00;8.48;;;12.90;99.90;;;;;;4905875;29;47121;-80
2023/03/12 14:20:29;;;;;;;48.30;8.50;;;12.80;99.90;;;;;;4909563;29;47392;-80
2023/03/12 14:23:11;;;;;;;57.80;9.50;;;12.80;99.90;;;;;;4908824;29;37022;-78
2023/03/12 14:25:43;;;;;;;45.78;8.18;;;12.30;99.90;;;;;;4906177;29;48679;-78
2023/03/12 14:28:22;;;;;;;52.30;9.05;;;12.20;99.90;;;;;;4906746;29;37948;-79
2023/03/12 14:31:01;;;;;;;50.25;9.30;;;12.10;99.90;;;;;;4904974;29;37887;-79
2023/03/12 14:33:59;;;;;;;55.03;9.00;;;12.00;99.90;;;;;;4909611;29;47391;-79
2023/03/12 14:36:56;;;;;;;47.88;8.93;;;11.90;99.90;;;;;;4910744;29;40808;-79
2023/03/12 14:39:40;;;;;;;51.70;10.45;;;11.80;99.90;;;;;;4898321;29;37641;-80
2023/03/12 14:42:08;;;;;;;52.08;10.50;;;11.90;99.90;;;;;;4906074;29;36762;-79
2023/03/12 14:44:37;;;;;;;58.28;9.30;;;12.00;99.90;;;;;;4905176;29;36542;-79
2023/03/12 14:47:06;;;;;;;53.97;10.43;;;12.10;99.90;;;;;;4909190;29;39149;-78